Time;durP1;ratioP1;P1;durP2;ratioP2;P2;SDS_P1;SDS_P2;PMS_P1;PMS_P2;Temp;Humidity;BMP_temperature;BMP_pressure;BME280_temperature;BME280_humidity;BME280_pressure;Samples;Min_cycle;Max_cycle;Signal;HPM_P1;HPM_P2
2023/06/08 00:02:25;;;;;;;5.15;2.78;;;;;;;;;;5022044;28;20072;-79
2023/06/08 00:04:53;;;;;;;6.47;2.90;;;;;;;;;;5021912;28;20279;-79
2023/06/08 00:07:21;;;;;;;5.65;2.58;;;;;;;;;;5005304;28;20432;-79
2023/06/08 00:09:47;;;;;;;5.97;2.78;;;;;;;;;;5021451;28;20037;-79
2023/06/08 00:12:12;;;;;;;5.70;2.95;;;;;;;;;;5005998;28;20424;-80
2023/06/08 00:14:38;;;;;;;6.15;2.75;;;;;;;;;;5022686;28;20072;-80
2023/06/08 00:17:05;;;;;;;4.28;2.58;;;;;;;;;;5025631;28;20136;-80
2023/06/08 00:19:32;;;;;;;4.38;2.53;;;;;;;;;;5027651;28;20048;-78
2023/06/08 00:21:59;;;;;;;5.40;3.00;;;;;;;;;;5000351;28;20116;-79
2023/06/08 00:24:25;;;;;;;5.82;2.70;;;;;;;;;;5010560;28;20512;-79
2023/06/08 00:26:50;;;;;;;8.18;3.20;;;;;;;;;;5027955;28;21124;-80
2023/06/08 00:29:15;;;;;;;5.95;2.80;;;;;;;;;;5017885;28;20033;-79
2023/06/08 00:31:44;;;;;;;5.32;2.65;;;;;;;;;;5024825;28;20043;-79
2023/06/08 00:34:09;;;;;;;4.88;2.72;;;;;;;;;;5025454;28;20049;-79
2023/06/08 00:36:37;;;;;;;5.30;2.67;;;;;;;;;;5025089;28;20048;-79
2023/06/08 00:39:02;;;;;;;4.78;2.50;;;;;;;;;;5014025;28;20037;-79
2023/06/08 00:41:29;;;;;;;6.18;2.90;;;;;;;;;;5025013;28;20576;-79
2023/06/08 00:43:54;;;;;;;5.70;2.72;;;;;;;;;;5025632;28;20043;-79
2023/06/08 00:46:20;;;;;;;4.82;2.63;;;;;;;;;;5018621;28;20484;-80
2023/06/08 00:48:46;;;;;;;5.70;2.67;;;;;;;;;;5025335;28;20045;-79
2023/06/08 00:51:12;;;;;;;4.45;2.40;;;;;;;;;;5008022;28;20045;-79
2023/06/08 00:53:37;;;;;;;4.65;2.60;;;;;;;;;;5011196;28;20057;-79
2023/06/08 00:56:03;;;;;;;4.13;2.35;;;;;;;;;;5046559;28;20036;-79
2023/06/08 00:58:29;;;;;;;4.35;2.40;;;;;;;;;;5030224;28;20036;-79
2023/06/08 01:00:59;;;;;;;4.22;2.40;;;;;;;;;;5029055;28;20040;-80
2023/06/08 01:03:35;;;;;;;4.47;2.45;;;;;;;;;;5033695;28;20053;-79
2023/06/08 01:06:03;;;;;;;4.95;2.80;;;;;;;;;;5011910;28;20037;-79
2023/06/08 01:08:58;;;;;;;5.40;2.90;;;;;;;;;;5029652;28;20091;-79
2023/06/08 01:11:32;;;;;;;4.90;2.55;;;;;;;;;;5011480;28;20097;-79
2023/06/08 01:14:14;;;;;;;5.03;2.53;;;;;;;;;;5015272;28;20042;-79
2023/06/08 01:16:49;;;;;;;3.97;2.30;;;;;;;;;;4994667;28;20745;-79
2023/06/08 01:19:17;;;;;;;4.30;2.50;;;;;;;;;;5029901;28;20480;-79
2023/06/08 01:21:54;;;;;;;5.10;2.75;;;;;;;;;;5027706;28;20173;-78
2023/06/08 01:24:30;;;;;;;5.03;2.63;;;;;;;;;;5028248;28;20040;-79
2023/06/08 01:26:57;;;;;;;5.20;2.60;;;;;;;;;;5011859;28;20041;-79
2023/06/08 01:29:25;;;;;;;6.00;3.05;;;;;;;;;;5028688;28;20033;-79
2023/06/08 01:31:51;;;;;;;5.47;3.08;;;;;;;;;;5011836;28;20922;-80
2023/06/08 01:34:17;;;;;;;6.03;2.67;;;;;;;;;;5044327;28;20052;-80
2023/06/08 01:36:55;;;;;;;4.90;2.55;;;;;;;;;;5026317;28;20071;-80
2023/06/08 01:40:06;;;;;;;6.85;3.20;;;;;;;;;;5046145;28;20401;-80
2023/06/08 01:42:32;;;;;;;5.53;2.80;;;;;;;;;;5003956;28;20492;-79
2023/06/08 01:45:15;;;;;;;5.30;2.90;;;;;;;;;;5028157;28;20127;-78
2023/06/08 01:47:46;;;;;;;4.65;2.63;;;;;;;;;;5000341;28;20045;-80
2023/06/08 01:50:12;;;;;;;8.00;2.90;;;;;;;;;;5038487;28;20495;-80
2023/06/08 01:52:39;;;;;;;7.22;2.78;;;;;;;;;;5010573;28;20116;-80
2023/06/08 01:55:25;;;;;;;5.53;2.80;;;;;;;;;;5029196;28;20522;-79
2023/06/08 01:57:51;;;;;;;4.85;2.60;;;;;;;;;;5027668;28;20033;-79
2023/06/08 02:00:18;;;;;;;6.72;2.78;;;;;;;;;;4997338;28;20040;-80
2023/06/08 02:02:44;;;;;;;5.25;2.63;;;;;;;;;;5008513;28;20033;-80
2023/06/08 02:05:11;;;;;;;5.45;2.53;;;;;;;;;;5028199;28;20037;-80
2023/06/08 02:07:41;;;;;;;4.95;2.78;;;;;;;;;;5044100;28;20033;-80
2023/06/08 02:10:07;;;;;;;5.30;2.67;;;;;;;;;;5028028;28;20538;-79
2023/06/08 02:12:33;;;;;;;4.43;2.83;;;;;;;;;;5011050;28;20040;-79
2023/06/08 02:14:59;;;;;;;4.30;2.70;;;;;;;;;;5029436;28;20037;-80
2023/06/08 02:17:27;;;;;;;4.55;2.75;;;;;;;;;;5026890;28;20036;-80
2023/06/08 02:19:56;;;;;;;5.20;2.80;;;;;;;;;;5026560;28;20043;-79
2023/06/08 02:22:21;;;;;;;4.93;2.50;;;;;;;;;;5026783;28;20439;-80
2023/06/08 02:24:48;;;;;;;5.38;3.03;;;;;;;;;;5028121;28;20038;-80
2023/06/08 02:27:14;;;;;;;5.82;2.67;;;;;;;;;;5025438;28;20056;-80
2023/06/08 02:29:40;;;;;;;4.90;2.70;;;;;;;;;;4998316;28;20686;-79
2023/06/08 02:32:06;;;;;;;5.28;2.90;;;;;;;;;;5025377;28;20033;-79
2023/06/08 02:34:32;;;;;;;5.32;2.90;;;;;;;;;;5027488;28;20045;-80
2023/06/08 02:36:58;;;;;;;5.70;3.08;;;;;;;;;;5043983;28;20044;-80
2023/06/08 02:39:23;;;;;;;6.00;3.17;;;;;;;;;;5025450;28;20037;-80
2023/06/08 02:41:49;;;;;;;5.50;2.85;;;;;;;;;;5025111;28;20041;-80
2023/06/08 02:44:14;;;;;;;5.95;2.92;;;;;;;;;;5010688;28;20427;-79
2023/06/08 02:46:40;;;;;;;5.72;3.00;;;;;;;;;;5009597;28;20115;-79
2023/06/08 02:49:05;;;;;;;6.03;2.83;;;;;;;;;;5032618;28;20488;-79
2023/06/08 02:51:31;;;;;;;5.15;3.10;;;;;;;;;;5009204;28;20041;-79
2023/06/08 02:53:56;;;;;;;4.75;2.80;;;;;;;;;;5028359;28;20048;-79
2023/06/08 02:56:24;;;;;;;6.95;2.80;;;;;;;;;;5025713;28;20116;-80
2023/06/08 02:58:49;;;;;;;6.43;3.10;;;;;;;;;;5013321;28;20041;-80
2023/06/08 03:01:15;;;;;;;7.32;3.20;;;;;;;;;;5005412;28;20099;-80
2023/06/08 03:03:47;;;;;;;5.35;3.03;;;;;;;;;;5010524;28;20037;-79
2023/06/08 03:06:17;;;;;;;8.43;2.67;;;;;;;;;;5006472;28;20040;-80
2023/06/08 03:08:53;;;;;;;5.18;3.03;;;;;;;;;;5015472;28;20033;-79
2023/06/08 03:11:20;;;;;;;4.80;2.65;;;;;;;;;;4985851;28;20108;-80
2023/06/08 03:13:45;;;;;;;5.47;3.03;;;;;;;;;;5003302;28;20041;-79
2023/06/08 03:16:12;;;;;;;5.18;3.00;;;;;;;;;;5026306;28;20045;-79
2023/06/08 03:18:39;;;;;;;5.80;2.92;;;;;;;;;;5030777;28;20075;-80
2023/06/08 03:21:12;;;;;;;4.60;3.00;;;;;;;;;;5027080;28;20025;-80
2023/06/08 03:23:38;;;;;;;4.88;2.72;;;;;;;;;;5026262;28;20045;-80
2023/06/08 03:26:04;;;;;;;4.88;2.88;;;;;;;;;;5042107;28;20543;-79
2023/06/08 03:28:29;;;;;;;5.72;2.90;;;;;;;;;;5013804;28;20045;-79
2023/06/08 03:30:55;;;;;;;5.20;2.75;;;;;;;;;;5000463;28;20051;-80
2023/06/08 03:33:20;;;;;;;5.40;2.90;;;;;;;;;;5043261;28;20045;-80
2023/06/08 03:35:47;;;;;;;5.13;3.00;;;;;;;;;;5025879;28;20033;-80
2023/06/08 03:38:13;;;;;;;6.50;3.07;;;;;;;;;;5026291;28;20040;-79
2023/06/08 03:40:38;;;;;;;6.97;2.88;;;;;;;;;;5024912;28;20276;-79
2023/06/08 03:43:03;;;;;;;6.40;3.20;;;;;;;;;;4993140;28;20071;-80
2023/06/08 03:45:30;;;;;;;6.07;3.20;;;;;;;;;;5003538;28;20041;-80
2023/06/08 03:47:55;;;;;;;5.03;3.00;;;;;;;;;;5010159;28;20498;-80
2023/06/08 03:50:21;;;;;;;4.70;2.70;;;;;;;;;;5007866;28;20067;-80
2023/06/08 03:52:46;;;;;;;6.13;2.65;;;;;;;;;;5026169;28;20519;-80
2023/06/08 03:55:12;;;;;;;5.72;3.05;;;;;;;;;;5024968;28;20037;-80
2023/06/08 03:57:38;;;;;;;6.03;2.97;;;;;;;;;;5015992;28;20044;-79
2023/06/08 04:00:08;;;;;;;5.30;2.80;;;;;;;;;;5001005;28;20040;-80
2023/06/08 04:02:34;;;;;;;7.75;2.95;;;;;;;;;;5025618;28;20062;-80
2023/06/08 04:04:59;;;;;;;5.40;2.92;;;;;;;;;;5026515;28;20422;-83
2023/06/08 04:07:28;;;;;;;8.38;3.85;;;;;;;;;;5026355;28;20040;-83
2023/06/08 04:09:53;;;;;;;6.13;3.00;;;;;;;;;;5009105;28;20079;-83
2023/06/08 04:12:19;;;;;;;4.85;2.60;;;;;;;;;;5030170;28;20037;-83
2023/06/08 04:14:45;;;;;;;5.90;3.15;;;;;;;;;;5026498;28;20044;-84
2023/06/08 04:17:12;;;;;;;6.15;3.38;;;;;;;;;;5007146;28;20123;-83
2023/06/08 04:19:38;;;;;;;5.43;3.00;;;;;;;;;;5026650;28;20045;-83
2023/06/08 04:22:04;;;;;;;6.05;3.40;;;;;;;;;;5012797;28;20090;-83
2023/06/08 04:24:38;;;;;;;5.53;2.92;;;;;;;;;;5026581;28;20732;-83
2023/06/08 04:27:05;;;;;;;5.30;3.10;;;;;;;;;;5012160;28;20033;-84
2023/06/08 04:29:31;;;;;;;5.65;2.65;;;;;;;;;;5018713;28;20098;-83
2023/06/08 04:31:56;;;;;;;6.75;3.13;;;;;;;;;;5008410;28;20041;-84
2023/06/08 04:34:21;;;;;;;6.10;2.85;;;;;;;;;;5009282;28;20033;-83
2023/06/08 04:36:47;;;;;;;5.28;2.90;;;;;;;;;;5023639;28;20045;-83
2023/06/08 04:39:12;;;;;;;7.10;2.90;;;;;;;;;;5026160;28;20057;-82
2023/06/08 04:41:38;;;;;;;7.53;2.80;;;;;;;;;;5028479;28;20037;-83
2023/06/08 04:44:05;;;;;;;6.78;3.08;;;;;;;;;;5008710;28;20057;-83
2023/06/08 04:46:33;;;;;;;6.03;3.20;;;;;;;;;;5028212;28;20404;-82
2023/06/08 04:48:59;;;;;;;5.47;2.97;;;;;;;;;;5011987;28;20316;-79
2023/06/08 04:51:29;;;;;;;9.60;3.30;;;;;;;;;;5011961;28;20053;-80
2023/06/08 04:53:59;;;;;;;6.95;3.20;;;;;;;;;;5024591;28;20075;-80
2023/06/08 04:56:29;;;;;;;7.10;3.00;;;;;;;;;;5014582;28;20091;-81
2023/06/08 04:58:57;;;;;;;10.88;3.20;;;;;;;;;;5025925;28;20037;-80
2023/06/08 05:01:23;;;;;;;5.60;2.90;;;;;;;;;;5025019;28;20116;-81
2023/06/08 05:03:49;;;;;;;7.68;2.72;;;;;;;;;;5028229;28;20401;-82
2023/06/08 05:06:15;;;;;;;5.53;2.70;;;;;;;;;;5027333;28;20040;-82
2023/06/08 05:08:41;;;;;;;5.47;2.92;;;;;;;;;;5002193;28;20099;-82
2023/06/08 05:11:06;;;;;;;6.57;3.60;;;;;;;;;;5017888;28;20125;-82
2023/06/08 05:13:31;;;;;;;6.05;2.80;;;;;;;;;;5028788;28;20044;-81
2023/06/08 05:15:58;;;;;;;7.15;3.17;;;;;;;;;;5012858;28;20063;-82
2023/06/08 05:18:28;;;;;;;4.97;2.90;;;;;;;;;;5029369;28;20885;-82
2023/06/08 05:20:53;;;;;;;5.18;3.00;;;;;;;;;;5016040;28;20403;-82
2023/06/08 05:23:18;;;;;;;6.80;2.78;;;;;;;;;;5011527;28;20475;-81
2023/06/08 05:25:44;;;;;;;6.28;2.90;;;;;;;;;;5028291;28;20373;-83
2023/06/08 05:28:09;;;;;;;7.00;3.15;;;;;;;;;;4979070;28;20032;-85
2023/06/08 05:30:35;;;;;;;8.63;2.90;;;;;;;;;;5026879;28;20043;-82
2023/06/08 05:33:00;;;;;;;7.05;2.88;;;;;;;;;;5008290;28;20084;-82
2023/06/08 05:35:29;;;;;;;6.50;3.15;;;;;;;;;;4998920;28;20608;-80
2023/06/08 05:37:55;;;;;;;5.20;2.90;;;;;;;;;;4995222;28;20037;-84
2023/06/08 05:40:21;;;;;;;5.88;3.25;;;;;;;;;;5027326;28;20040;-86
2023/06/08 05:42:46;;;;;;;5.50;3.17;;;;;;;;;;5011670;28;20122;-83
2023/06/08 05:45:12;;;;;;;11.85;3.70;;;;;;;;;;5031923;28;20527;-82
2023/06/08 05:47:38;;;;;;;9.00;2.92;;;;;;;;;;5027318;28;20044;-82
2023/06/08 05:50:04;;;;;;;7.45;2.80;;;;;;;;;;4995287;28;20060;-87
2023/06/08 05:52:41;;;;;;;5.85;3.00;;;;;;;;;;5038433;28;20102;-78
2023/06/08 05:55:06;;;;;;;11.13;2.53;;;;;;;;;;5011988;28;20060;-79
2023/06/08 05:57:32;;;;;;;6.25;2.88;;;;;;;;;;5043151;28;20041;-79
2023/06/08 05:59:57;;;;;;;6.85;3.15;;;;;;;;;;5036733;28;20037;-79
2023/06/08 06:02:23;;;;;;;5.68;3.15;;;;;;;;;;5026570;28;20037;-79
2023/06/08 06:04:56;;;;;;;5.40;2.50;;;;;;;;;;5033258;28;20060;-79
2023/06/08 06:07:21;;;;;;;5.57;3.00;;;;;;;;;;4993595;28;20045;-79
2023/06/08 06:09:47;;;;;;;5.07;2.88;;;;;;;;;;5035581;28;20037;-79
2023/06/08 06:12:13;;;;;;;5.32;2.80;;;;;;;;;;5005417;28;20124;-79
2023/06/08 06:14:39;;;;;;;4.90;2.65;;;;;;;;;;4994400;28;20042;-80
2023/06/08 06:17:06;;;;;;;5.27;3.00;;;;;;;;;;5021178;28;20508;-79
2023/06/08 06:19:36;;;;;;;6.38;2.80;;;;;;;;;;5010898;28;20857;-80
2023/06/08 06:22:06;;;;;;;6.68;3.03;;;;;;;;;;5027415;28;20036;-79
2023/06/08 06:24:31;;;;;;;5.15;2.50;;;;;;;;;;5027803;28;20143;-79
2023/06/08 06:26:57;;;;;;;6.25;2.85;;;;;;;;;;5004799;28;20151;-80
2023/06/08 06:29:24;;;;;;;9.98;2.70;;;;;;;;;;5010804;28;20112;-79
2023/06/08 06:31:49;;;;;;;5.95;2.78;;;;;;;;;;5029705;28;20037;-80
2023/06/08 06:34:16;;;;;;;7.57;2.72;;;;;;;;;;5027264;28;20043;-80
2023/06/08 06:36:42;;;;;;;5.70;2.63;;;;;;;;;;5043288;28;20029;-79
2023/06/08 06:39:07;;;;;;;7.82;2.80;;;;;;;;;;4998010;28;20615;-80
2023/06/08 06:41:33;;;;;;;5.15;2.92;;;;;;;;;;5009439;28;20033;-80
2023/06/08 06:43:58;;;;;;;5.50;2.83;;;;;;;;;;5026034;28;20060;-79
2023/06/08 06:46:27;;;;;;;5.32;2.72;;;;;;;;;;4987180;28;20432;-79
2023/06/08 06:49:12;;;;;;;4.85;2.47;;;;;;;;;;5025727;28;20037;-79
2023/06/08 06:51:40;;;;;;;5.32;2.70;;;;;;;;;;4981420;28;20461;-79
2023/06/08 06:54:05;;;;;;;6.45;3.40;;;;;;;;;;4971160;28;20043;-79
2023/06/08 06:56:31;;;;;;;6.07;3.05;;;;;;;;;;4965329;28;20178;-80
2023/06/08 06:58:57;;;;;;;5.97;2.90;;;;;;;;;;4949561;28;20038;-79
2023/06/08 07:01:36;;;;;;;5.10;3.00;;;;;;;;;;4981468;28;20045;-79
2023/06/08 07:04:05;;;;;;;7.43;2.83;;;;;;;;;;4949960;28;20186;-79
2023/06/08 07:06:31;;;;;;;5.25;2.90;;;;;;;;;;4950757;28;20049;-79
2023/06/08 07:08:56;;;;;;;6.00;2.80;;;;;;;;;;4949893;28;20041;-78
2023/06/08 07:11:21;;;;;;;4.25;2.55;;;;;;;;;;4972500;28;20766;-79
2023/06/08 07:13:47;;;;;;;6.60;3.10;;;;;;;;;;4965769;28;20042;-79
2023/06/08 07:16:12;;;;;;;5.90;2.60;;;;;;;;;;4964724;28;20038;-79
2023/06/08 07:18:38;;;;;;;4.47;2.33;;;;;;;;;;4982051;28;20069;-79
2023/06/08 07:21:03;;;;;;;6.00;2.40;;;;;;;;;;4964480;28;20034;-79
2023/06/08 07:23:29;;;;;;;5.25;2.40;;;;;;;;;;4966580;28;20042;-79
2023/06/08 07:25:54;;;;;;;5.00;2.90;;;;;;;;;;4955068;28;20070;-79
2023/06/08 07:28:20;;;;;;;5.30;2.67;;;;;;;;;;4987450;28;20718;-79
2023/06/08 07:30:48;;;;;;;4.63;2.50;;;;;;;;;;4995410;28;20037;-79
2023/06/08 07:33:14;;;;;;;5.78;2.42;;;;;;;;;;4993903;28;20057;-79
2023/06/08 07:35:42;;;;;;;4.45;2.40;;;;;;;;;;5024777;28;20516;-79
2023/06/08 07:38:08;;;;;;;6.50;2.60;;;;;;;;;;5025139;28;20036;-78
2023/06/08 07:40:33;;;;;;;6.03;2.95;;;;;;;;;;5029685;28;20426;-79
2023/06/08 07:43:01;;;;;;;5.60;2.75;;;;;;;;;;5008692;28;20480;-79
2023/06/08 07:45:27;;;;;;;5.40;2.78;;;;;;;;;;5025333;28;20052;-79
2023/06/08 07:47:52;;;;;;;8.43;2.50;;;;;;;;;;5030615;28;20029;-79
2023/06/08 07:50:18;;;;;;;4.00;2.47;;;;;;;;;;5024380;28;20036;-79
2023/06/08 07:52:43;;;;;;;5.05;2.60;;;;;;;;;;5024806;28;20067;-80
2023/06/08 07:55:11;;;;;;;5.15;2.78;;;;;;;;;;5023151;28;20060;-79
2023/06/08 07:57:37;;;;;;;4.68;2.60;;;;;;;;;;5008929;28;20040;-79
2023/06/08 08:00:05;;;;;;;6.47;2.50;;;;;;;;;;5016674;28;20036;-79
2023/06/08 08:02:30;;;;;;;5.88;2.63;;;;;;;;;;5013877;28;20041;-79
2023/06/08 08:04:56;;;;;;;4.75;2.58;;;;;;;;;;5025293;28;20561;-79
2023/06/08 08:07:21;;;;;;;5.88;2.70;;;;;;;;;;5024881;28;20047;-80
2023/06/08 08:09:47;;;;;;;9.75;2.50;;;;;;;;;;5025317;28;20543;-79
2023/06/08 08:12:15;;;;;;;4.32;2.47;;;;;;;;;;5008808;28;20037;-79
2023/06/08 08:14:41;;;;;;;4.97;2.63;;;;;;;;;;5011595;28;20042;-80
2023/06/08 08:17:06;;;;;;;4.95;2.63;;;;;;;;;;5000471;28;20033;-79
2023/06/08 08:19:32;;;;;;;4.57;2.30;;;;;;;;;;5029763;28;20394;-79
2023/06/08 08:21:57;;;;;;;5.78;2.47;;;;;;;;;;5024484;28;20087;-81
2023/06/08 08:24:23;;;;;;;4.43;2.25;;;;;;;;;;5011863;28;21754;-79
2023/06/08 08:26:53;;;;;;;7.15;2.65;;;;;;;;;;4998231;28;20116;-80
2023/06/08 08:29:21;;;;;;;4.88;2.30;;;;;;;;;;5017433;28;20522;-78
2023/06/08 08:31:46;;;;;;;4.03;2.17;;;;;;;;;;5007835;28;20120;-78
2023/06/08 08:34:12;;;;;;;6.13;2.40;;;;;;;;;;5025766;28;20051;-80
2023/06/08 08:36:38;;;;;;;5.43;2.25;;;;;;;;;;5029718;28;20045;-79
2023/06/08 08:39:04;;;;;;;6.80;2.08;;;;;;;;;;5029066;28;20766;-80
2023/06/08 08:41:36;;;;;;;4.97;2.33;;;;;;;;;;5032844;28;20047;-79
2023/06/08 08:44:04;;;;;;;5.70;2.30;;;;;;;;;;5027532;28;20037;-79
2023/06/08 08:46:37;;;;;;;4.82;2.30;;;;;;;;;;5015812;28;20033;-79
2023/06/08 08:49:08;;;;;;;4.22;2.22;;;;;;;;;;5004013;28;20114;-79
2023/06/08 08:51:38;;;;;;;4.22;2.17;;;;;;;;;;5043927;28;20099;-79
2023/06/08 08:54:07;;;;;;;5.22;1.98;;;;;;;;;;5022591;28;20041;-79
2023/06/08 08:56:36;;;;;;;6.13;2.45;;;;;;;;;;5012772;28;20045;-80
2023/06/08 08:59:03;;;;;;;5.32;2.10;;;;;;;;;;5029059;28;20029;-79
2023/06/08 09:01:32;;;;;;;5.68;2.40;;;;;;;;;;5028490;28;20036;-80
2023/06/08 09:03:57;;;;;;;3.40;2.00;;;;;;;;;;5029104;28;20484;-80
2023/06/08 09:06:23;;;;;;;4.28;2.03;;;;;;;;;;5028261;28;20036;-81
2023/06/08 09:08:48;;;;;;;9.52;2.42;;;;;;;;;;5029618;28;20082;-79
2023/06/08 09:11:14;;;;;;;4.55;1.70;;;;;;;;;;5011958;28;20021;-80
2023/06/08 09:13:40;;;;;;;6.28;2.33;;;;;;;;;;5034312;28;20511;-80
2023/06/08 09:16:16;;;;;;;7.47;2.20;;;;;;;;;;5027572;28;20110;-80
2023/06/08 09:18:43;;;;;;;;;;;;;;;;;;5028622;28;20044;-81
2023/06/08 09:21:22;;;;;;;4.43;2.05;;;;;;;;;;5011278;28;19920;-80
2023/06/08 09:24:05;;;;;;;4.97;2.10;;;;;;;;;;5000497;28;20384;-80
2023/06/08 09:26:32;;;;;;;4.28;2.20;;;;;;;;;;5015606;28;20045;-79
2023/06/08 09:29:08;;;;;;;4.28;2.28;;;;;;;;;;4998595;28;20393;-81
2023/06/08 09:31:34;;;;;;;4.70;2.40;;;;;;;;;;5013040;28;20522;-80
2023/06/08 09:34:25;;;;;;;5.57;2.30;;;;;;;;;;5012547;28;20029;-81
2023/06/08 09:36:52;;;;;;;3.95;2.10;;;;;;;;;;5007663;28;20041;-80
2023/06/08 09:39:20;;;;;;;3.85;2.10;;;;;;;;;;5004651;28;20032;-80
2023/06/08 09:41:56;;;;;;;3.50;2.00;;;;;;;;;;5009891;28;20647;-81
2023/06/08 09:44:21;;;;;;;5.53;1.98;;;;;;;;;;5013770;28;20028;-81
2023/06/08 09:46:48;;;;;;;4.80;2.03;;;;;;;;;;5007358;28;20040;-81
2023/06/08 09:49:13;;;;;;;;;;;;;;;;;;5010433;28;20147;-82
2023/06/08 09:51:44;;;;;;;3.65;2.00;;;;;;;;;;5010203;28;20007;-81
2023/06/08 09:54:11;;;;;;;5.13;2.10;;;;;;;;;;4998655;28;20567;-80
2023/06/08 09:56:40;;;;;;;3.80;1.98;;;;;;;;;;5008297;28;20065;-80
2023/06/08 09:59:23;;;;;;;3.80;1.90;;;;;;;;;;5024220;28;20492;-81
2023/06/08 10:01:53;;;;;;;7.03;2.22;;;;;;;;;;5009765;28;20033;-81
2023/06/08 10:04:24;;;;;;;3.42;1.77;;;;;;;;;;5014540;28;20117;-81
2023/06/08 10:06:54;;;;;;;4.57;2.00;;;;;;;;;;5001196;28;20535;-81
2023/06/08 10:09:21;;;;;;;3.28;1.70;;;;;;;;;;5024502;28;20782;-82
2023/06/08 10:11:47;;;;;;;4.90;1.83;;;;;;;;;;5005106;28;20033;-81
2023/06/08 10:14:13;;;;;;;3.90;1.80;;;;;;;;;;5024317;28;20064;-79
2023/06/08 10:16:40;;;;;;;3.55;1.90;;;;;;;;;;5021512;28;20140;-80
2023/06/08 10:19:06;;;;;;;3.75;1.90;;;;;;;;;;5024458;28;20084;-80
2023/06/08 10:21:32;;;;;;;3.67;2.00;;;;;;;;;;5039931;28;20370;-79
2023/06/08 10:23:59;;;;;;;3.72;1.67;;;;;;;;;;5013931;28;20554;-80
2023/06/08 10:26:24;;;;;;;;;;;;;;;;;;5007198;28;20485;-81
2023/06/08 10:29:08;;;;;;;;;;;;;;;;;;5000209;28;19956;-80
2023/06/08 10:31:37;;;;;;;3.30;1.77;;;;;;;;;;5022503;28;19917;-79
2023/06/08 10:34:13;;;;;;;4.38;1.90;;;;;;;;;;5024172;28;20554;-80
2023/06/08 10:36:40;;;;;;;4.07;1.80;;;;;;;;;;5007057;28;20041;-79
2023/06/08 10:39:10;;;;;;;3.05;1.55;;;;;;;;;;5024098;28;20029;-79
2023/06/08 10:41:38;;;;;;;6.95;1.90;;;;;;;;;;5012752;28;20037;-79
2023/06/08 10:44:04;;;;;;;3.97;1.75;;;;;;;;;;5023363;28;20619;-80
2023/06/08 10:46:43;;;;;;;5.37;2.00;;;;;;;;;;5023378;28;20073;-80
2023/06/08 10:49:08;;;;;;;4.47;2.05;;;;;;;;;;5007162;28;20092;-79
2023/06/08 10:51:43;;;;;;;4.35;2.10;;;;;;;;;;5038488;28;20519;-80
2023/06/08 10:54:11;;;;;;;2.75;1.63;;;;;;;;;;5023868;28;20496;-81
2023/06/08 10:56:42;;;;;;;6.07;2.20;;;;;;;;;;5038017;28;20049;-81
2023/06/08 10:59:07;;;;;;;3.72;1.92;;;;;;;;;;5039154;28;20618;-81
2023/06/08 11:01:35;;;;;;;4.63;1.90;;;;;;;;;;5022155;28;20033;-82
2023/06/08 11:04:09;;;;;;;3.30;1.80;;;;;;;;;;5024836;28;20393;-81
2023/06/08 11:06:35;;;;;;;4.70;2.05;;;;;;;;;;5038447;28;20068;-81
2023/06/08 11:09:06;;;;;;;3.17;1.80;;;;;;;;;;5007687;28;20049;-81
2023/06/08 11:11:31;;;;;;;3.35;1.90;;;;;;;;;;5005822;28;20550;-81
2023/06/08 11:13:57;;;;;;;6.40;2.00;;;;;;;;;;5023966;28;20113;-82
2023/06/08 11:16:22;;;;;;;5.67;2.20;;;;;;;;;;5005933;28;20049;-79
2023/06/08 11:18:48;;;;;;;3.87;2.00;;;;;;;;;;5014276;28;20415;-81
2023/06/08 11:21:17;;;;;;;3.43;1.90;;;;;;;;;;5005936;28;20057;-81
2023/06/08 11:23:42;;;;;;;6.72;1.90;;;;;;;;;;5022230;28;20041;-81
2023/06/08 11:26:21;;;;;;;4.67;1.83;;;;;;;;;;5022307;28;20571;-81
2023/06/08 11:28:49;;;;;;;6.13;2.20;;;;;;;;;;5006673;28;20378;-81
2023/06/08 11:31:14;;;;;;;4.45;2.10;;;;;;;;;;5015193;28;20063;-81
2023/06/08 11:33:51;;;;;;;4.40;1.80;;;;;;;;;;5022649;28;20425;-81
2023/06/08 11:36:17;;;;;;;3.30;1.90;;;;;;;;;;5021901;28;20055;-80
2023/06/08 11:38:46;;;;;;;3.85;2.15;;;;;;;;;;5017313;28;20037;-80
2023/06/08 11:41:12;;;;;;;3.65;2.08;;;;;;;;;;5009664;28;20563;-81
2023/06/08 11:43:38;;;;;;;2.90;1.60;;;;;;;;;;5022130;28;20485;-82
2023/06/08 11:46:07;;;;;;;;;;;;;;;;;;5018414;28;20124;-81
2023/06/08 11:48:33;;;;;;;5.38;2.22;;;;;;;;;;5005308;28;19968;-81
2023/06/08 11:50:59;;;;;;;3.33;2.13;;;;;;;;;;5021728;28;20124;-81
2023/06/08 11:53:25;;;;;;;;;;;;;;;;;;4998058;28;20050;-81
2023/06/08 11:55:51;;;;;;;;;;;;;;;;;;5009402;28;19969;-80
2023/06/08 11:58:17;;;;;;;4.38;2.00;;;;;;;;;;5024949;28;20006;-80
2023/06/08 12:00:43;;;;;;;4.22;2.13;;;;;;;;;;5008622;28;20090;-80
2023/06/08 12:03:09;;;;;;;4.17;1.97;;;;;;;;;;5015576;28;20049;-80
2023/06/08 12:05:35;;;;;;;3.50;1.83;;;;;;;;;;5008266;28;20586;-79
2023/06/08 12:08:14;;;;;;;3.83;1.85;;;;;;;;;;5025705;28;20037;-79
2023/06/08 12:10:41;;;;;;;4.13;2.30;;;;;;;;;;5024897;28;20631;-78
2023/06/08 12:13:12;;;;;;;4.50;2.58;;;;;;;;;;5029272;28;20068;-79
2023/06/08 12:15:46;;;;;;;4.38;2.33;;;;;;;;;;5010811;28;20068;-78
2023/06/08 12:18:13;;;;;;;4.60;2.50;;;;;;;;;;5014491;28;20029;-79
2023/06/08 12:20:39;;;;;;;4.63;2.20;;;;;;;;;;5030915;28;20064;-78
2023/06/08 12:23:05;;;;;;;4.63;2.15;;;;;;;;;;5029169;28;20563;-79
2023/06/08 12:25:33;;;;;;;5.70;2.30;;;;;;;;;;5029643;28;20033;-79
2023/06/08 12:27:58;;;;;;;5.05;2.50;;;;;;;;;;5029105;28;20439;-81
2023/06/08 12:30:25;;;;;;;4.17;2.40;;;;;;;;;;4998736;28;20116;-81
2023/06/08 12:32:51;;;;;;;3.13;2.10;;;;;;;;;;5013390;28;20103;-80
2023/06/08 12:35:17;;;;;;;3.90;2.40;;;;;;;;;;5028378;28;20689;-81
2023/06/08 12:37:51;;;;;;;4.03;2.13;;;;;;;;;;5024966;28;20045;-79
2023/06/08 12:40:20;;;;;;;4.50;2.67;;;;;;;;;;5028530;28;20044;-80
2023/06/08 12:42:51;;;;;;;4.93;2.50;;;;;;;;;;5029052;28;20037;-79
2023/06/08 12:45:18;;;;;;;5.20;2.47;;;;;;;;;;5029056;28;20032;-80
2023/06/08 12:47:44;;;;;;;4.68;2.30;;;;;;;;;;5028405;28;20408;-79
2023/06/08 12:50:11;;;;;;;6.80;2.55;;;;;;;;;;5045057;28;20044;-78
2023/06/08 12:52:37;;;;;;;5.35;2.90;;;;;;;;;;5027750;28;20589;-78
2023/06/08 12:55:04;;;;;;;3.70;2.40;;;;;;;;;;5028256;28;20136;-79
2023/06/08 12:57:29;;;;;;;4.25;2.45;;;;;;;;;;5033979;28;20037;-78
2023/06/08 12:59:54;;;;;;;5.32;2.47;;;;;;;;;;4993678;28;20044;-77
2023/06/08 13:02:24;;;;;;;4.05;2.40;;;;;;;;;;5022325;28;20075;-80
2023/06/08 13:04:50;;;;;;;5.63;2.75;;;;;;;;;;5028673;28;20037;-81
2023/06/08 13:07:18;;;;;;;5.68;2.92;;;;;;;;;;5019486;28;20121;-80
2023/06/08 13:09:44;;;;;;;5.13;2.50;;;;;;;;;;5020542;28;20742;-80
2023/06/08 13:12:10;;;;;;;4.70;2.45;;;;;;;;;;5027773;28;20032;-79
2023/06/08 13:14:35;;;;;;;4.45;2.50;;;;;;;;;;5018372;28;20053;-80
2023/06/08 13:17:01;;;;;;;5.25;2.67;;;;;;;;;;5032051;28;20116;-80
2023/06/08 13:19:27;;;;;;;4.05;2.50;;;;;;;;;;5019148;28;20068;-80
2023/06/08 13:21:53;;;;;;;7.22;2.50;;;;;;;;;;5027844;28;20057;-80
2023/06/08 13:24:24;;;;;;;5.45;2.35;;;;;;;;;;5011211;28;20450;-80
2023/06/08 13:26:53;;;;;;;4.78;2.25;;;;;;;;;;5027492;28;20025;-81
2023/06/08 13:29:24;;;;;;;3.60;1.98;;;;;;;;;;5028380;28;20099;-85
2023/06/08 13:31:50;;;;;;;4.53;2.40;;;;;;;;;;5018302;28;20116;-84
2023/06/08 13:34:27;;;;;;;3.67;2.00;;;;;;;;;;5028613;28;21050;-85
2023/06/08 13:36:53;;;;;;;3.85;2.20;;;;;;;;;;5027500;28;20045;-85
2023/06/08 13:39:21;;;;;;;4.17;1.90;;;;;;;;;;5011734;28;20572;-84
2023/06/08 13:41:46;;;;;;;5.70;2.20;;;;;;;;;;5027935;28;20049;-83
2023/06/08 13:44:15;;;;;;;4.70;2.47;;;;;;;;;;5045219;28;20104;-83
2023/06/08 13:46:40;;;;;;;4.10;2.15;;;;;;;;;;5028897;28;20120;-83
2023/06/08 13:49:05;;;;;;;4.63;2.20;;;;;;;;;;5028283;28;20499;-84
2023/06/08 13:51:42;;;;;;;4.20;2.20;;;;;;;;;;5028553;28;20036;-84
2023/06/08 13:54:07;;;;;;;3.70;1.92;;;;;;;;;;5028613;28;20041;-86
2023/06/08 13:56:33;;;;;;;4.43;2.77;;;;;;;;;;5011689;28;20041;-82
2023/06/08 13:58:59;;;;;;;4.13;2.23;;;;;;;;;;5020283;28;20032;-85
2023/06/08 14:01:26;;;;;;;7.00;2.65;;;;;;;;;;5027260;28;20468;-84
2023/06/08 14:03:51;;;;;;;6.45;2.50;;;;;;;;;;5044450;28;20041;-85
2023/06/08 14:06:16;;;;;;;6.00;3.47;;;;;;;;;;5029906;28;20055;-85
2023/06/08 14:08:43;;;;;;;5.80;3.63;;;;;;;;;;5018546;28;20086;-85
2023/06/08 14:11:11;;;;;;;4.72;2.63;;;;;;;;;;5026834;28;20411;-86
2023/06/08 14:13:37;;;;;;;4.55;2.58;;;;;;;;;;5019165;28;20272;-86
2023/06/08 14:16:07;;;;;;;4.13;2.23;;;;;;;;;;5017551;28;20037;-86
2023/06/08 14:18:33;;;;;;;4.68;2.17;;;;;;;;;;5024364;28;20044;-84
2023/06/08 14:20:58;;;;;;;4.07;2.58;;;;;;;;;;5015994;28;20037;-85
2023/06/08 14:23:24;;;;;;;3.95;2.38;;;;;;;;;;5027649;28;20044;-86
2023/06/08 14:25:49;;;;;;;4.78;2.42;;;;;;;;;;5027153;28;20112;-83
2023/06/08 14:28:15;;;;;;;3.92;2.13;;;;;;;;;;5028003;28;20060;-84
2023/06/08 14:30:41;;;;;;;4.47;2.35;;;;;;;;;;5010067;28;20478;-86
2023/06/08 14:33:11;;;;;;;4.30;2.20;;;;;;;;;;5007874;28;20068;-85
2023/06/08 14:35:37;;;;;;;5.10;2.38;;;;;;;;;;5025963;28;20893;-85
2023/06/08 14:38:03;;;;;;;3.90;2.42;;;;;;;;;;5010367;28;20037;-83
2023/06/08 14:40:29;;;;;;;7.15;2.72;;;;;;;;;;5009889;28;20037;-85
2023/06/08 14:42:55;;;;;;;3.97;2.40;;;;;;;;;;5025817;28;20040;-85
2023/06/08 14:45:20;;;;;;;4.38;2.60;;;;;;;;;;5025689;28;20089;-84
2023/06/08 14:47:46;;;;;;;5.80;2.40;;;;;;;;;;5027382;28;20544;-85
2023/06/08 14:50:14;;;;;;;4.95;2.67;;;;;;;;;;5009724;28;20044;-85